sensor_id;sensor_type;location;lat;lon;timestamp;P1;durP1;ratioP1;P2;durP2;ratioP2
54139;SDS011;40046;53.254;5.900;2023-11-21T00:00:38;6.97;;;3.60;;
54139;SDS011;40046;53.254;5.900;2023-11-21T00:03:04;7.07;;;3.55;;
54139;SDS011;40046;53.254;5.900;2023-11-21T00:05:31;9.90;;;3.95;;
54139;SDS011;40046;53.254;5.900;2023-11-21T00:07:58;11.82;;;3.65;;
54139;SDS011;40046;53.254;5.900;2023-11-21T00:10:24;7.15;;;3.15;;
54139;SDS011;40046;53.254;5.900;2023-11-21T00:12:50;8.20;;;3.65;;
54139;SDS011;40046;53.254;5.900;2023-11-21T00:15:16;11.32;;;4.38;;
54139;SDS011;40046;53.254;5.900;2023-11-21T00:17:43;7.47;;;4.30;;
54139;SDS011;40046;53.254;5.900;2023-11-21T00:20:10;9.80;;;4.15;;
54139;SDS011;40046;53.254;5.900;2023-11-21T00:22:38;8.57;;;3.42;;
54139;SDS011;40046;53.254;5.900;2023-11-21T00:25:05;6.38;;;3.03;;
54139;SDS011;40046;53.254;5.900;2023-11-21T00:27:34;10.27;;;3.30;;
54139;SDS011;40046;53.254;5.900;2023-11-21T00:30:01;9.80;;;3.60;;
54139;SDS011;40046;53.254;5.900;2023-11-21T00:32:29;8.43;;;3.40;;
54139;SDS011;40046;53.254;5.900;2023-11-21T00:34:57;7.80;;;3.25;;
54139;SDS011;40046;53.254;5.900;2023-11-21T00:37:24;9.52;;;3.38;;
54139;SDS011;40046;53.254;5.900;2023-11-21T00:39:50;8.82;;;3.38;;
54139;SDS011;40046;53.254;5.900;2023-11-21T00:42:17;9.68;;;3.25;;
54139;SDS011;40046;53.254;5.900;2023-11-21T00:44:44;7.25;;;2.75;;
54139;SDS011;40046;53.254;5.900;2023-11-21T00:47:10;10.23;;;3.65;;
54139;SDS011;40046;53.254;5.900;2023-11-21T00:49:39;7.65;;;2.78;;
54139;SDS011;40046;53.254;5.900;2023-11-21T00:52:05;12.13;;;3.03;;
54139;SDS011;40046;53.254;5.900;2023-11-21T00:54:31;9.02;;;2.97;;
54139;SDS011;40046;53.254;5.900;2023-11-21T00:56:58;10.38;;;3.47;;
54139;SDS011;40046;53.254;5.900;2023-11-21T00:59:25;13.57;;;3.75;;
54139;SDS011;40046;53.254;5.900;2023-11-21T01:01:51;14.63;;;4.38;;
54139;SDS011;40046;53.254;5.900;2023-11-21T01:04:17;8.52;;;3.40;;
54139;SDS011;40046;53.254;5.900;2023-11-21T01:06:43;15.82;;;5.07;;
54139;SDS011;40046;53.254;5.900;2023-11-21T01:09:10;16.67;;;6.22;;
54139;SDS011;40046;53.254;5.900;2023-11-21T01:11:37;15.10;;;6.00;;
54139;SDS011;40046;53.254;5.900;2023-11-21T01:14:04;24.00;;;8.02;;
54139;SDS011;40046;53.254;5.900;2023-11-21T01:16:31;17.73;;;7.70;;
54139;SDS011;40046;53.254;5.900;2023-11-21T01:18:58;16.05;;;8.07;;
54139;SDS011;40046;53.254;5.900;2023-11-21T01:21:24;15.57;;;7.88;;
54139;SDS011;40046;53.254;5.900;2023-11-21T01:23:50;16.80;;;8.27;;
54139;SDS011;40046;53.254;5.900;2023-11-21T01:26:17;13.90;;;7.50;;
54139;SDS011;40046;53.254;5.900;2023-11-21T01:28:43;18.77;;;7.68;;
54139;SDS011;40046;53.254;5.900;2023-11-21T01:31:09;16.23;;;6.70;;
54139;SDS011;40046;53.254;5.900;2023-11-21T01:33:35;18.95;;;6.72;;
54139;SDS011;40046;53.254;5.900;2023-11-21T01:36:01;17.50;;;6.90;;
54139;SDS011;40046;53.254;5.900;2023-11-21T01:38:27;16.80;;;6.30;;
54139;SDS011;40046;53.254;5.900;2023-11-21T01:40:54;21.63;;;5.80;;
54139;SDS011;40046;53.254;5.900;2023-11-21T01:43:20;14.40;;;4.93;;
54139;SDS011;40046;53.254;5.900;2023-11-21T01:45:46;15.57;;;4.07;;
54139;SDS011;40046;53.254;5.900;2023-11-21T01:48:13;12.90;;;4.22;;
54139;SDS011;40046;53.254;5.900;2023-11-21T01:50:41;20.48;;;4.25;;
54139;SDS011;40046;53.254;5.900;2023-11-21T01:53:08;13.88;;;3.92;;
54139;SDS011;40046;53.254;5.900;2023-11-21T01:55:34;10.57;;;3.63;;
54139;SDS011;40046;53.254;5.900;2023-11-21T01:58:01;14.38;;;3.53;;
54139;SDS011;40046;53.254;5.900;2023-11-21T02:00:27;11.32;;;3.85;;
54139;SDS011;40046;53.254;5.900;2023-11-21T02:02:54;11.57;;;3.65;;
54139;SDS011;40046;53.254;5.900;2023-11-21T02:05:21;10.85;;;3.53;;
54139;SDS011;40046;53.254;5.900;2023-11-21T02:07:48;9.25;;;4.55;;
54139;SDS011;40046;53.254;5.900;2023-11-21T02:10:14;13.77;;;4.65;;
54139;SDS011;40046;53.254;5.900;2023-11-21T02:12:41;10.25;;;3.78;;
54139;SDS011;40046;53.254;5.900;2023-11-21T02:15:08;14.43;;;4.20;;
54139;SDS011;40046;53.254;5.900;2023-11-21T02:17:43;15.98;;;4.38;;
54139;SDS011;40046;53.254;5.900;2023-11-21T02:20:13;21.77;;;3.20;;
54139;SDS011;40046;53.254;5.900;2023-11-21T02:22:43;20.35;;;3.95;;
54139;SDS011;40046;53.254;5.900;2023-11-21T02:25:09;23.27;;;4.18;;
54139;SDS011;40046;53.254;5.900;2023-11-21T02:27:36;22.10;;;3.78;;
54139;SDS011;40046;53.254;5.900;2023-11-21T02:30:03;24.42;;;4.03;;
54139;SDS011;40046;53.254;5.900;2023-11-21T02:32:30;24.10;;;4.40;;
54139;SDS011;40046;53.254;5.900;2023-11-21T02:34:57;25.88;;;5.60;;
54139;SDS011;40046;53.254;5.900;2023-11-21T02:37:26;29.42;;;6.05;;
54139;SDS011;40046;53.254;5.900;2023-11-21T02:39:52;21.83;;;5.70;;
54139;SDS011;40046;53.254;5.900;2023-11-21T02:42:18;19.85;;;5.13;;
54139;SDS011;40046;53.254;5.900;2023-11-21T02:44:45;15.95;;;5.85;;
54139;SDS011;40046;53.254;5.900;2023-11-21T02:47:11;15.32;;;4.60;;
54139;SDS011;40046;53.254;5.900;2023-11-21T02:49:37;18.60;;;4.45;;
54139;SDS011;40046;53.254;5.900;2023-11-21T02:52:03;14.07;;;4.05;;
54139;SDS011;40046;53.254;5.900;2023-11-21T02:54:29;10.57;;;3.97;;
54139;SDS011;40046;53.254;5.900;2023-11-21T02:56:56;9.45;;;3.25;;
54139;SDS011;40046;53.254;5.900;2023-11-21T02:59:23;8.90;;;3.20;;
54139;SDS011;40046;53.254;5.900;2023-11-21T03:01:50;13.68;;;4.13;;
54139;SDS011;40046;53.254;5.900;2023-11-21T03:04:16;8.82;;;2.22;;
54139;SDS011;40046;53.254;5.900;2023-11-21T03:06:44;8.70;;;2.70;;
54139;SDS011;40046;53.254;5.900;2023-11-21T03:09:10;9.80;;;2.80;;
54139;SDS011;40046;53.254;5.900;2023-11-21T03:11:39;9.23;;;3.80;;
54139;SDS011;40046;53.254;5.900;2023-11-21T03:14:05;7.68;;;2.78;;
54139;SDS011;40046;53.254;5.900;2023-11-21T03:16:32;8.57;;;2.90;;
54139;SDS011;40046;53.254;5.900;2023-11-21T03:18:59;11.07;;;3.08;;
54139;SDS011;40046;53.254;5.900;2023-11-21T03:21:26;9.40;;;3.55;;
54139;SDS011;40046;53.254;5.900;2023-11-21T03:23:54;7.95;;;4.00;;
54139;SDS011;40046;53.254;5.900;2023-11-21T03:26:20;6.85;;;3.40;;
54139;SDS011;40046;53.254;5.900;2023-11-21T03:28:47;10.98;;;3.60;;
54139;SDS011;40046;53.254;5.900;2023-11-21T03:31:13;12.18;;;3.70;;
54139;SDS011;40046;53.254;5.900;2023-11-21T03:33:41;15.25;;;4.50;;
54139;SDS011;40046;53.254;5.900;2023-11-21T03:36:07;12.77;;;4.45;;
54139;SDS011;40046;53.254;5.900;2023-11-21T03:38:34;13.23;;;3.95;;
54139;SDS011;40046;53.254;5.900;2023-11-21T03:41:00;16.63;;;4.80;;
54139;SDS011;40046;53.254;5.900;2023-11-21T03:43:27;13.68;;;4.60;;
54139;SDS011;40046;53.254;5.900;2023-11-21T03:45:53;17.42;;;5.72;;
54139;SDS011;40046;53.254;5.900;2023-11-21T03:48:20;16.95;;;6.70;;
54139;SDS011;40046;53.254;5.900;2023-11-21T03:50:46;15.65;;;6.68;;
54139;SDS011;40046;53.254;5.900;2023-11-21T03:53:12;15.25;;;6.68;;
54139;SDS011;40046;53.254;5.900;2023-11-21T03:55:38;18.98;;;6.25;;
54139;SDS011;40046;53.254;5.900;2023-11-21T03:58:05;18.88;;;7.53;;
54139;SDS011;40046;53.254;5.900;2023-11-21T04:00:31;16.10;;;8.38;;
54139;SDS011;40046;53.254;5.900;2023-11-21T04:02:57;26.50;;;8.95;;
54139;SDS011;40046;53.254;5.900;2023-11-21T04:05:23;22.05;;;8.60;;
54139;SDS011;40046;53.254;5.900;2023-11-21T04:07:50;26.10;;;9.55;;
54139;SDS011;40046;53.254;5.900;2023-11-21T04:10:16;23.38;;;8.90;;
54139;SDS011;40046;53.254;5.900;2023-11-21T04:12:43;24.83;;;9.13;;
54139;SDS011;40046;53.254;5.900;2023-11-21T04:15:10;21.30;;;10.40;;
54139;SDS011;40046;53.254;5.900;2023-11-21T04:17:38;19.65;;;10.13;;
54139;SDS011;40046;53.254;5.900;2023-11-21T04:20:05;16.92;;;9.70;;
54139;SDS011;40046;53.254;5.900;2023-11-21T04:22:34;18.48;;;10.27;;
54139;SDS011;40046;53.254;5.900;2023-11-21T04:25:02;17.58;;;10.93;;
54139;SDS011;40046;53.254;5.900;2023-11-21T04:27:28;17.08;;;10.20;;
54139;SDS011;40046;53.254;5.900;2023-11-21T04:29:55;19.05;;;9.68;;
54139;SDS011;40046;53.254;5.900;2023-11-21T04:32:21;18.30;;;9.63;;
54139;SDS011;40046;53.254;5.900;2023-11-21T04:34:47;23.17;;;12.52;;
54139;SDS011;40046;53.254;5.900;2023-11-21T04:37:13;23.17;;;10.02;;
54139;SDS011;40046;53.254;5.900;2023-11-21T04:39:39;18.15;;;10.25;;
54139;SDS011;40046;53.254;5.900;2023-11-21T04:42:06;20.15;;;11.55;;
54139;SDS011;40046;53.254;5.900;2023-11-21T04:44:32;20.67;;;11.70;;
54139;SDS011;40046;53.254;5.900;2023-11-21T04:46:58;27.17;;;12.95;;
54139;SDS011;40046;53.254;5.900;2023-11-21T04:49:24;30.83;;;12.55;;
54139;SDS011;40046;53.254;5.900;2023-11-21T04:51:50;28.58;;;13.80;;
54139;SDS011;40046;53.254;5.900;2023-11-21T04:54:17;21.75;;;12.57;;
54139;SDS011;40046;53.254;5.900;2023-11-21T04:56:43;28.17;;;13.25;;
54139;SDS011;40046;53.254;5.900;2023-11-21T04:59:09;26.80;;;12.55;;
54139;SDS011;40046;53.254;5.900;2023-11-21T05:01:35;27.13;;;12.15;;
54139;SDS011;40046;53.254;5.900;2023-11-21T05:04:01;18.85;;;9.57;;
54139;SDS011;40046;53.254;5.900;2023-11-21T05:06:28;24.45;;;11.77;;
54139;SDS011;40046;53.254;5.900;2023-11-21T05:08:54;23.83;;;11.98;;
54139;SDS011;40046;53.254;5.900;2023-11-21T05:11:24;27.65;;;13.48;;
54139;SDS011;40046;53.254;5.900;2023-11-21T05:13:50;25.30;;;13.38;;
54139;SDS011;40046;53.254;5.900;2023-11-21T05:16:16;33.25;;;14.82;;
54139;SDS011;40046;53.254;5.900;2023-11-21T05:18:42;31.63;;;16.33;;
54139;SDS011;40046;53.254;5.900;2023-11-21T05:21:08;28.13;;;15.75;;
54139;SDS011;40046;53.254;5.900;2023-11-21T05:23:35;35.83;;;16.40;;
54139;SDS011;40046;53.254;5.900;2023-11-21T05:26:02;33.58;;;17.38;;
54139;SDS011;40046;53.254;5.900;2023-11-21T05:28:28;30.42;;;16.58;;
54139;SDS011;40046;53.254;5.900;2023-11-21T05:30:55;33.40;;;18.73;;
54139;SDS011;40046;53.254;5.900;2023-11-21T05:33:21;34.53;;;18.05;;
54139;SDS011;40046;53.254;5.900;2023-11-21T05:35:47;33.10;;;17.60;;
54139;SDS011;40046;53.254;5.900;2023-11-21T05:38:14;36.00;;;20.42;;
54139;SDS011;40046;53.254;5.900;2023-11-21T05:40:40;40.55;;;19.23;;
54139;SDS011;40046;53.254;5.900;2023-11-21T05:43:06;40.53;;;20.55;;
54139;SDS011;40046;53.254;5.900;2023-11-21T05:45:32;35.15;;;18.50;;
54139;SDS011;40046;53.254;5.900;2023-11-21T05:48:00;27.48;;;16.65;;
54139;SDS011;40046;53.254;5.900;2023-11-21T05:50:26;34.63;;;16.13;;
54139;SDS011;40046;53.254;5.900;2023-11-21T05:52:53;24.77;;;14.52;;
54139;SDS011;40046;53.254;5.900;2023-11-21T05:55:22;24.20;;;13.50;;
54139;SDS011;40046;53.254;5.900;2023-11-21T05:57:51;22.67;;;13.38;;
54139;SDS011;40046;53.254;5.900;2023-11-21T06:00:17;24.38;;;13.07;;
54139;SDS011;40046;53.254;5.900;2023-11-21T06:05:20;26.85;;;14.65;;
54139;SDS011;40046;53.254;5.900;2023-11-21T06:07:48;29.90;;;14.98;;
54139;SDS011;40046;53.254;5.900;2023-11-21T06:10:14;37.13;;;15.95;;
54139;SDS011;40046;53.254;5.900;2023-11-21T06:12:43;30.17;;;16.08;;
54139;SDS011;40046;53.254;5.900;2023-11-21T06:15:09;34.38;;;17.50;;
54139;SDS011;40046;53.254;5.900;2023-11-21T06:17:39;31.38;;;17.48;;
54139;SDS011;40046;53.254;5.900;2023-11-21T06:20:06;34.60;;;17.20;;
54139;SDS011;40046;53.254;5.900;2023-11-21T06:22:36;26.80;;;16.02;;
54139;SDS011;40046;53.254;5.900;2023-11-21T06:25:03;32.17;;;15.65;;
54139;SDS011;40046;53.254;5.900;2023-11-21T06:27:31;34.20;;;16.85;;
54139;SDS011;40046;53.254;5.900;2023-11-21T06:29:58;31.80;;;15.15;;
54139;SDS011;40046;53.254;5.900;2023-11-21T06:32:24;27.48;;;14.50;;
54139;SDS011;40046;53.254;5.900;2023-11-21T06:34:51;26.65;;;16.58;;
54139;SDS011;40046;53.254;5.900;2023-11-21T06:37:20;26.55;;;16.70;;
54139;SDS011;40046;53.254;5.900;2023-11-21T06:39:48;27.67;;;15.38;;
54139;SDS011;40046;53.254;5.900;2023-11-21T06:42:17;27.30;;;15.60;;
54139;SDS011;40046;53.254;5.900;2023-11-21T06:44:46;22.85;;;14.98;;
54139;SDS011;40046;53.254;5.900;2023-11-21T06:47:13;27.40;;;17.60;;
54139;SDS011;40046;53.254;5.900;2023-11-21T06:49:41;26.55;;;16.15;;
54139;SDS011;40046;53.254;5.900;2023-11-21T06:52:07;26.30;;;16.92;;
54139;SDS011;40046;53.254;5.900;2023-11-21T06:54:33;28.70;;;17.52;;
54139;SDS011;40046;53.254;5.900;2023-11-21T06:57:00;25.73;;;16.80;;
54139;SDS011;40046;53.254;5.900;2023-11-21T06:59:28;24.10;;;17.02;;
54139;SDS011;40046;53.254;5.900;2023-11-21T07:01:54;27.70;;;17.90;;
54139;SDS011;40046;53.254;5.900;2023-11-21T07:04:20;28.27;;;17.38;;
54139;SDS011;40046;53.254;5.900;2023-11-21T07:06:46;27.20;;;17.20;;
54139;SDS011;40046;53.254;5.900;2023-11-21T07:09:12;22.15;;;14.77;;
54139;SDS011;40046;53.254;5.900;2023-11-21T07:11:39;19.95;;;14.55;;
54139;SDS011;40046;53.254;5.900;2023-11-21T07:14:05;21.60;;;14.15;;
54139;SDS011;40046;53.254;5.900;2023-11-21T07:16:36;21.45;;;14.18;;
54139;SDS011;40046;53.254;5.900;2023-11-21T07:19:03;19.15;;;14.07;;
54139;SDS011;40046;53.254;5.900;2023-11-21T07:21:33;19.10;;;14.23;;
54139;SDS011;40046;53.254;5.900;2023-11-21T07:24:02;19.05;;;14.77;;
54139;SDS011;40046;53.254;5.900;2023-11-21T07:26:29;19.38;;;14.57;;
54139;SDS011;40046;53.254;5.900;2023-11-21T07:28:56;20.80;;;14.88;;
54139;SDS011;40046;53.254;5.900;2023-11-21T07:31:22;24.02;;;16.25;;
54139;SDS011;40046;53.254;5.900;2023-11-21T07:33:49;23.98;;;15.63;;
54139;SDS011;40046;53.254;5.900;2023-11-21T07:36:16;20.58;;;15.45;;
54139;SDS011;40046;53.254;5.900;2023-11-21T07:38:48;21.27;;;15.32;;
54139;SDS011;40046;53.254;5.900;2023-11-21T07:41:15;22.52;;;14.57;;
54139;SDS011;40046;53.254;5.900;2023-11-21T07:43:43;20.83;;;14.68;;
54139;SDS011;40046;53.254;5.900;2023-11-21T07:46:09;20.63;;;14.00;;
54139;SDS011;40046;53.254;5.900;2023-11-21T07:48:38;20.27;;;14.43;;
54139;SDS011;40046;53.254;5.900;2023-11-21T07:51:04;23.05;;;13.25;;
54139;SDS011;40046;53.254;5.900;2023-11-21T07:53:30;16.77;;;13.38;;
54139;SDS011;40046;53.254;5.900;2023-11-21T07:55:57;17.95;;;14.18;;
54139;SDS011;40046;53.254;5.900;2023-11-21T07:58:23;19.13;;;13.73;;
54139;SDS011;40046;53.254;5.900;2023-11-21T08:00:49;21.27;;;13.40;;
54139;SDS011;40046;53.254;5.900;2023-11-21T08:03:16;16.90;;;12.30;;
54139;SDS011;40046;53.254;5.900;2023-11-21T08:05:42;16.95;;;12.27;;
54139;SDS011;40046;53.254;5.900;2023-11-21T08:08:09;17.50;;;11.82;;
54139;SDS011;40046;53.254;5.900;2023-11-21T08:10:35;20.45;;;12.48;;
54139;SDS011;40046;53.254;5.900;2023-11-21T08:13:02;20.10;;;11.27;;
54139;SDS011;40046;53.254;5.900;2023-11-21T08:15:29;16.92;;;11.55;;
54139;SDS011;40046;53.254;5.900;2023-11-21T08:17:57;16.55;;;11.00;;
54139;SDS011;40046;53.254;5.900;2023-11-21T08:20:24;18.80;;;11.82;;
54139;SDS011;40046;53.254;5.900;2023-11-21T08:22:50;14.52;;;10.55;;
54139;SDS011;40046;53.254;5.900;2023-11-21T08:25:20;19.08;;;11.20;;
54139;SDS011;40046;53.254;5.900;2023-11-21T08:27:47;19.15;;;10.60;;
54139;SDS011;40046;53.254;5.900;2023-11-21T08:30:14;14.98;;;10.57;;
54139;SDS011;40046;53.254;5.900;2023-11-21T08:32:42;18.02;;;12.57;;
54139;SDS011;40046;53.254;5.900;2023-11-21T08:35:09;18.50;;;12.25;;
54139;SDS011;40046;53.254;5.900;2023-11-21T08:37:35;18.67;;;11.00;;
54139;SDS011;40046;53.254;5.900;2023-11-21T08:40:03;14.20;;;10.60;;
54139;SDS011;40046;53.254;5.900;2023-11-21T08:42:32;15.50;;;11.25;;
54139;SDS011;40046;53.254;5.900;2023-11-21T08:44:58;15.32;;;10.27;;
54139;SDS011;40046;53.254;5.900;2023-11-21T08:47:25;13.70;;;9.77;;
54139;SDS011;40046;53.254;5.900;2023-11-21T08:49:51;13.43;;;10.60;;
54139;SDS011;40046;53.254;5.900;2023-11-21T08:52:18;12.65;;;9.13;;
54139;SDS011;40046;53.254;5.900;2023-11-21T08:54:51;9.70;;;8.07;;
54139;SDS011;40046;53.254;5.900;2023-11-21T08:57:24;9.20;;;7.10;;
54139;SDS011;40046;53.254;5.900;2023-11-21T08:59:50;14.18;;;8.48;;
54139;SDS011;40046;53.254;5.900;2023-11-21T09:02:25;11.93;;;8.10;;
54139;SDS011;40046;53.254;5.900;2023-11-21T09:04:51;10.93;;;9.13;;
54139;SDS011;40046;53.254;5.900;2023-11-21T09:07:18;12.65;;;10.07;;
54139;SDS011;40046;53.254;5.900;2023-11-21T09:09:46;13.40;;;9.98;;
54139;SDS011;40046;53.254;5.900;2023-11-21T09:12:12;15.13;;;11.80;;
54139;SDS011;40046;53.254;5.900;2023-11-21T09:14:38;16.35;;;11.68;;
54139;SDS011;40046;53.254;5.900;2023-11-21T09:17:05;14.90;;;11.63;;
54139;SDS011;40046;53.254;5.900;2023-11-21T09:19:36;14.55;;;11.93;;
54139;SDS011;40046;53.254;5.900;2023-11-21T09:22:05;21.27;;;13.60;;
54139;SDS011;40046;53.254;5.900;2023-11-21T09:24:37;15.75;;;13.02;;
54139;SDS011;40046;53.254;5.900;2023-11-21T09:27:03;22.10;;;14.85;;
54139;SDS011;40046;53.254;5.900;2023-11-21T09:29:30;18.60;;;14.77;;
54139;SDS011;40046;53.254;5.900;2023-11-21T09:31:57;17.70;;;14.25;;
54139;SDS011;40046;53.254;5.900;2023-11-21T09:34:26;14.75;;;12.82;;
54139;SDS011;40046;53.254;5.900;2023-11-21T09:36:52;17.23;;;12.63;;
54139;SDS011;40046;53.254;5.900;2023-11-21T09:39:19;15.52;;;13.65;;
54139;SDS011;40046;53.254;5.900;2023-11-21T09:41:52;17.60;;;12.75;;
54139;SDS011;40046;53.254;5.900;2023-11-21T09:44:29;17.75;;;10.48;;
54139;SDS011;40046;53.254;5.900;2023-11-21T09:46:59;14.38;;;9.25;;
54139;SDS011;40046;53.254;5.900;2023-11-21T09:49:25;15.15;;;9.75;;
54139;SDS011;40046;53.254;5.900;2023-11-21T09:51:53;12.10;;;9.82;;
54139;SDS011;40046;53.254;5.900;2023-11-21T09:54:23;11.82;;;9.52;;
54139;SDS011;40046;53.254;5.900;2023-11-21T09:56:49;13.65;;;9.48;;
54139;SDS011;40046;53.254;5.900;2023-11-21T09:59:16;12.20;;;9.23;;
54139;SDS011;40046;53.254;5.900;2023-11-21T10:01:42;13.10;;;10.73;;
54139;SDS011;40046;53.254;5.900;2023-11-21T10:04:09;12.68;;;10.20;;
54139;SDS011;40046;53.254;5.900;2023-11-21T10:06:39;10.77;;;9.05;;
54139;SDS011;40046;53.254;5.900;2023-11-21T10:09:07;13.27;;;9.80;;
54139;SDS011;40046;53.254;5.900;2023-11-21T10:11:38;14.10;;;10.50;;
54139;SDS011;40046;53.254;5.900;2023-11-21T10:14:06;14.55;;;10.50;;
54139;SDS011;40046;53.254;5.900;2023-11-21T10:16:35;15.73;;;10.88;;
54139;SDS011;40046;53.254;5.900;2023-11-21T10:19:02;13.40;;;11.50;;
54139;SDS011;40046;53.254;5.900;2023-11-21T10:21:34;15.32;;;10.32;;
54139;SDS011;40046;53.254;5.900;2023-11-21T10:24:00;12.45;;;10.00;;
54139;SDS011;40046;53.254;5.900;2023-11-21T10:26:28;13.57;;;10.90;;
54139;SDS011;40046;53.254;5.900;2023-11-21T10:29:00;13.48;;;10.73;;
54139;SDS011;40046;53.254;5.900;2023-11-21T10:31:31;11.38;;;9.35;;
54139;SDS011;40046;53.254;5.900;2023-11-21T10:34:16;10.88;;;9.15;;
54139;SDS011;40046;53.254;5.900;2023-11-21T10:36:43;11.35;;;9.15;;
54139;SDS011;40046;53.254;5.900;2023-11-21T10:39:13;11.02;;;8.63;;
54139;SDS011;40046;53.254;5.900;2023-11-21T10:41:43;11.93;;;8.87;;
54139;SDS011;40046;53.254;5.900;2023-11-21T10:44:10;9.93;;;7.70;;
54139;SDS011;40046;53.254;5.900;2023-11-21T10:46:39;10.25;;;8.20;;
54139;SDS011;40046;53.254;5.900;2023-11-21T10:49:08;9.48;;;8.10;;
54139;SDS011;40046;53.254;5.900;2023-11-21T10:51:34;12.43;;;8.73;;
54139;SDS011;40046;53.254;5.900;2023-11-21T10:54:00;12.73;;;8.35;;
54139;SDS011;40046;53.254;5.900;2023-11-21T10:56:27;13.98;;;9.70;;
54139;SDS011;40046;53.254;5.900;2023-11-21T10:58:55;12.02;;;8.30;;
54139;SDS011;40046;53.254;5.900;2023-11-21T11:01:22;10.32;;;8.85;;
54139;SDS011;40046;53.254;5.900;2023-11-21T11:03:51;12.05;;;9.35;;
54139;SDS011;40046;53.254;5.900;2023-11-21T11:06:20;9.88;;;8.77;;
54139;SDS011;40046;53.254;5.900;2023-11-21T11:08:47;13.07;;;9.30;;
54139;SDS011;40046;53.254;5.900;2023-11-21T11:11:13;12.88;;;8.95;;
54139;SDS011;40046;53.254;5.900;2023-11-21T11:13:43;10.35;;;8.82;;
54139;SDS011;40046;53.254;5.900;2023-11-21T11:16:12;9.70;;;8.52;;
54139;SDS011;40046;53.254;5.900;2023-11-21T11:18:42;11.55;;;9.02;;
54139;SDS011;40046;53.254;5.900;2023-11-21T11:21:20;9.90;;;8.32;;
54139;SDS011;40046;53.254;5.900;2023-11-21T11:26:24;10.43;;;7.95;;
54139;SDS011;40046;53.254;5.900;2023-11-21T11:28:57;9.98;;;7.97;;
54139;SDS011;40046;53.254;5.900;2023-11-21T11:34:39;9.82;;;7.90;;
54139;SDS011;40046;53.254;5.900;2023-11-21T11:36:47;10.38;;;7.00;;
54139;SDS011;40046;53.254;5.900;2023-11-21T11:39:27;8.20;;;6.00;;
54139;SDS011;40046;53.254;5.900;2023-11-21T11:41:57;9.32;;;6.53;;
54139;SDS011;40046;53.254;5.900;2023-11-21T11:47:23;8.10;;;6.30;;
54139;SDS011;40046;53.254;5.900;2023-11-21T11:49:57;7.47;;;5.10;;
54139;SDS011;40046;53.254;5.900;2023-11-21T11:52:37;6.55;;;4.63;;
54139;SDS011;40046;53.254;5.900;2023-11-21T11:55:06;7.95;;;5.32;;
54139;SDS011;40046;53.254;5.900;2023-11-21T11:57:33;6.40;;;5.03;;
54139;SDS011;40046;53.254;5.900;2023-11-21T12:00:16;5.45;;;4.43;;
54139;SDS011;40046;53.254;5.900;2023-11-21T12:02:46;6.18;;;4.53;;
54139;SDS011;40046;53.254;5.900;2023-11-21T12:05:13;6.53;;;4.25;;
54139;SDS011;40046;53.254;5.900;2023-11-21T12:07:53;6.53;;;4.75;;
54139;SDS011;40046;53.254;5.900;2023-11-21T12:10:20;5.82;;;4.78;;
54139;SDS011;40046;53.254;5.900;2023-11-21T12:15:14;6.13;;;4.05;;
54139;SDS011;40046;53.254;5.900;2023-11-21T12:17:43;5.82;;;3.60;;
54139;SDS011;40046;53.254;5.900;2023-11-21T12:20:10;5.68;;;4.05;;
54139;SDS011;40046;53.254;5.900;2023-11-21T12:22:53;5.55;;;3.75;;
54139;SDS011;40046;53.254;5.900;2023-11-21T12:25:20;5.72;;;4.05;;
54139;SDS011;40046;53.254;5.900;2023-11-21T12:27:47;6.55;;;3.67;;
54139;SDS011;40046;53.254;5.900;2023-11-21T12:30:17;5.80;;;4.18;;
54139;SDS011;40046;53.254;5.900;2023-11-21T12:32:44;8.45;;;4.93;;
54139;SDS011;40046;53.254;5.900;2023-11-21T12:35:14;6.25;;;4.05;;
54139;SDS011;40046;53.254;5.900;2023-11-21T12:37:41;5.25;;;3.88;;
54139;SDS011;40046;53.254;5.900;2023-11-21T12:40:08;6.05;;;4.47;;
54139;SDS011;40046;53.254;5.900;2023-11-21T12:42:44;9.80;;;5.55;;
54139;SDS011;40046;53.254;5.900;2023-11-21T12:47:43;7.15;;;4.85;;
54139;SDS011;40046;53.254;5.900;2023-11-21T12:50:10;8.55;;;5.97;;
54139;SDS011;40046;53.254;5.900;2023-11-21T12:52:44;7.40;;;5.78;;
54139;SDS011;40046;53.254;5.900;2023-11-21T12:55:22;7.97;;;6.07;;
54139;SDS011;40046;53.254;5.900;2023-11-21T12:57:52;8.90;;;6.20;;
54139;SDS011;40046;53.254;5.900;2023-11-21T13:00:20;8.43;;;6.53;;
54139;SDS011;40046;53.254;5.900;2023-11-21T13:02:56;9.17;;;6.63;;
54139;SDS011;40046;53.254;5.900;2023-11-21T13:05:33;8.95;;;6.40;;
54139;SDS011;40046;53.254;5.900;2023-11-21T13:16:36;9.73;;;6.70;;
54139;SDS011;40046;53.254;5.900;2023-11-21T13:19:04;8.90;;;6.28;;
54139;SDS011;40046;53.254;5.900;2023-11-21T13:21:43;11.43;;;6.72;;
54139;SDS011;40046;53.254;5.900;2023-11-21T13:24:09;8.45;;;6.60;;
54139;SDS011;40046;53.254;5.900;2023-11-21T13:26:36;8.63;;;6.40;;
54139;SDS011;40046;53.254;5.900;2023-11-21T13:29:02;10.18;;;6.50;;
54139;SDS011;40046;53.254;5.900;2023-11-21T13:31:30;12.38;;;6.97;;
54139;SDS011;40046;53.254;5.900;2023-11-21T13:33:57;8.23;;;6.00;;
54139;SDS011;40046;53.254;5.900;2023-11-21T13:36:30;9.85;;;6.03;;
54139;SDS011;40046;53.254;5.900;2023-11-21T13:38:58;7.68;;;5.43;;
54139;SDS011;40046;53.254;5.900;2023-11-21T13:41:29;7.03;;;5.60;;
54139;SDS011;40046;53.254;5.900;2023-11-21T13:43:56;7.78;;;5.90;;
54139;SDS011;40046;53.254;5.900;2023-11-21T13:46:54;8.07;;;5.72;;
54139;SDS011;40046;53.254;5.900;2023-11-21T13:49:23;9.15;;;6.97;;
54139;SDS011;40046;53.254;5.900;2023-11-21T13:51:50;11.27;;;7.10;;
54139;SDS011;40046;53.254;5.900;2023-11-21T13:54:20;11.15;;;7.95;;
54139;SDS011;40046;53.254;5.900;2023-11-21T13:56:46;14.00;;;8.10;;
54139;SDS011;40046;53.254;5.900;2023-11-21T13:59:14;7.63;;;6.80;;
54139;SDS011;40046;53.254;5.900;2023-11-21T14:01:50;10.55;;;7.93;;
54139;SDS011;40046;53.254;5.900;2023-11-21T14:04:21;11.00;;;8.57;;
54139;SDS011;40046;53.254;5.900;2023-11-21T14:07:16;9.15;;;7.00;;
54139;SDS011;40046;53.254;5.900;2023-11-21T14:10:03;9.40;;;5.43;;
54139;SDS011;40046;53.254;5.900;2023-11-21T14:12:38;9.75;;;5.68;;
54139;SDS011;40046;53.254;5.900;2023-11-21T14:15:06;11.93;;;6.90;;
54139;SDS011;40046;53.254;5.900;2023-11-21T14:17:34;15.07;;;7.15;;
54139;SDS011;40046;53.254;5.900;2023-11-21T14:20:03;8.52;;;5.97;;
54139;SDS011;40046;53.254;5.900;2023-11-21T14:22:30;9.75;;;5.22;;
54139;SDS011;40046;53.254;5.900;2023-11-21T14:24:56;8.23;;;5.72;;
54139;SDS011;40046;53.254;5.900;2023-11-21T14:27:25;11.25;;;6.00;;
54139;SDS011;40046;53.254;5.900;2023-11-21T14:29:51;9.30;;;4.90;;
54139;SDS011;40046;53.254;5.900;2023-11-21T14:32:18;22.83;;;7.97;;
54139;SDS011;40046;53.254;5.900;2023-11-21T14:34:44;8.35;;;5.10;;
54139;SDS011;40046;53.254;5.900;2023-11-21T14:37:12;8.88;;;4.78;;
54139;SDS011;40046;53.254;5.900;2023-11-21T14:39:39;6.70;;;3.78;;
54139;SDS011;40046;53.254;5.900;2023-11-21T14:42:09;6.78;;;4.30;;
54139;SDS011;40046;53.254;5.900;2023-11-21T14:44:36;5.82;;;3.67;;
54139;SDS011;40046;53.254;5.900;2023-11-21T14:47:07;6.07;;;3.40;;
54139;SDS011;40046;53.254;5.900;2023-11-21T14:49:43;11.20;;;3.65;;
54139;SDS011;40046;53.254;5.900;2023-11-21T14:52:19;6.90;;;3.55;;
54139;SDS011;40046;53.254;5.900;2023-11-21T14:55:03;6.63;;;3.83;;
54139;SDS011;40046;53.254;5.900;2023-11-21T14:57:48;5.03;;;3.10;;
54139;SDS011;40046;53.254;5.900;2023-11-21T15:00:15;7.13;;;3.42;;
54139;SDS011;40046;53.254;5.900;2023-11-21T15:03:02;5.57;;;3.45;;